sensor_id;sensor_type;location;lat;lon;timestamp;P1;durP1;ratioP1;P2;durP2;ratioP2
79410;SDS011;69635;50.964;6.948;2023-06-19T00:00:07;5.50;;;3.20;;
79410;SDS011;69635;50.964;6.948;2023-06-19T00:02:41;4.47;;;3.13;;
79410;SDS011;69635;50.964;6.948;2023-06-19T00:05:07;3.42;;;2.63;;
79410;SDS011;69635;50.964;6.948;2023-06-19T00:07:37;4.38;;;3.00;;
79410;SDS011;69635;50.964;6.948;2023-06-19T00:10:03;4.00;;;2.47;;
79410;SDS011;69635;50.964;6.948;2023-06-19T00:12:29;4.30;;;2.75;;
79410;SDS011;69635;50.964;6.948;2023-06-19T00:14:55;3.53;;;2.85;;
79410;SDS011;69635;50.964;6.948;2023-06-19T00:17:20;5.05;;;3.05;;
79410;SDS011;69635;50.964;6.948;2023-06-19T00:19:46;4.13;;;3.00;;
79410;SDS011;69635;50.964;6.948;2023-06-19T00:22:13;4.28;;;2.70;;
79410;SDS011;69635;50.964;6.948;2023-06-19T00:24:39;4.57;;;2.85;;
79410;SDS011;69635;50.964;6.948;2023-06-19T00:27:04;5.30;;;3.20;;
79410;SDS011;69635;50.964;6.948;2023-06-19T00:29:31;4.93;;;3.42;;
79410;SDS011;69635;50.964;6.948;2023-06-19T00:31:58;4.60;;;3.22;;
79410;SDS011;69635;50.964;6.948;2023-06-19T00:34:24;5.22;;;3.60;;
79410;SDS011;69635;50.964;6.948;2023-06-19T00:36:54;4.93;;;3.60;;
79410;SDS011;69635;50.964;6.948;2023-06-19T00:39:23;4.47;;;3.20;;
79410;SDS011;69635;50.964;6.948;2023-06-19T00:41:51;4.97;;;3.10;;
79410;SDS011;69635;50.964;6.948;2023-06-19T00:44:17;5.60;;;3.15;;
79410;SDS011;69635;50.964;6.948;2023-06-19T00:46:43;5.25;;;2.80;;
79410;SDS011;69635;50.964;6.948;2023-06-19T00:49:09;4.50;;;3.08;;
79410;SDS011;69635;50.964;6.948;2023-06-19T00:51:34;4.40;;;3.30;;
79410;SDS011;69635;50.964;6.948;2023-06-19T00:54:00;5.18;;;3.33;;
79410;SDS011;69635;50.964;6.948;2023-06-19T00:56:26;4.85;;;3.08;;
79410;SDS011;69635;50.964;6.948;2023-06-19T00:58:52;5.78;;;3.15;;
79410;SDS011;69635;50.964;6.948;2023-06-19T01:01:19;5.15;;;3.30;;
79410;SDS011;69635;50.964;6.948;2023-06-19T01:03:46;4.30;;;3.30;;
79410;SDS011;69635;50.964;6.948;2023-06-19T01:06:17;5.53;;;3.17;;
79410;SDS011;69635;50.964;6.948;2023-06-19T01:09:03;5.40;;;3.30;;
79410;SDS011;69635;50.964;6.948;2023-06-19T01:11:33;6.07;;;3.38;;
79410;SDS011;69635;50.964;6.948;2023-06-19T01:14:26;4.78;;;3.28;;
79410;SDS011;69635;50.964;6.948;2023-06-19T01:16:53;5.57;;;3.65;;
79410;SDS011;69635;50.964;6.948;2023-06-19T01:19:19;4.38;;;3.40;;
79410;SDS011;69635;50.964;6.948;2023-06-19T01:21:46;4.50;;;3.67;;
79410;SDS011;69635;50.964;6.948;2023-06-19T01:24:13;4.30;;;3.42;;
79410;SDS011;69635;50.964;6.948;2023-06-19T01:26:40;5.35;;;3.88;;
79410;SDS011;69635;50.964;6.948;2023-06-19T01:29:08;5.68;;;3.88;;
79410;SDS011;69635;50.964;6.948;2023-06-19T01:31:38;5.07;;;3.70;;
79410;SDS011;69635;50.964;6.948;2023-06-19T01:34:11;5.40;;;3.75;;
79410;SDS011;69635;50.964;6.948;2023-06-19T01:36:42;6.50;;;4.00;;
79410;SDS011;69635;50.964;6.948;2023-06-19T01:39:11;5.95;;;4.15;;
79410;SDS011;69635;50.964;6.948;2023-06-19T01:41:40;10.15;;;4.63;;
79410;SDS011;69635;50.964;6.948;2023-06-19T01:44:11;9.52;;;4.50;;
79410;SDS011;69635;50.964;6.948;2023-06-19T01:46:42;6.07;;;4.00;;
79410;SDS011;69635;50.964;6.948;2023-06-19T01:49:15;5.43;;;3.90;;
79410;SDS011;69635;50.964;6.948;2023-06-19T01:51:46;6.60;;;4.22;;
79410;SDS011;69635;50.964;6.948;2023-06-19T01:54:15;5.65;;;4.03;;
79410;SDS011;69635;50.964;6.948;2023-06-19T01:56:43;7.32;;;4.15;;
79410;SDS011;69635;50.964;6.948;2023-06-19T01:59:09;5.75;;;3.97;;
79410;SDS011;69635;50.964;6.948;2023-06-19T02:01:37;5.72;;;3.72;;
79410;SDS011;69635;50.964;6.948;2023-06-19T02:04:03;6.50;;;4.35;;
79410;SDS011;69635;50.964;6.948;2023-06-19T02:06:29;5.60;;;3.75;;
79410;SDS011;69635;50.964;6.948;2023-06-19T02:08:55;6.32;;;4.30;;
79410;SDS011;69635;50.964;6.948;2023-06-19T02:13:49;7.00;;;4.13;;
79410;SDS011;69635;50.964;6.948;2023-06-19T02:16:15;6.88;;;4.47;;
79410;SDS011;69635;50.964;6.948;2023-06-19T02:18:40;5.85;;;4.43;;
79410;SDS011;69635;50.964;6.948;2023-06-19T02:21:06;5.50;;;4.00;;
79410;SDS011;69635;50.964;6.948;2023-06-19T02:23:31;8.02;;;4.00;;
79410;SDS011;69635;50.964;6.948;2023-06-19T02:25:56;5.70;;;4.28;;
79410;SDS011;69635;50.964;6.948;2023-06-19T02:28:22;6.57;;;4.53;;
79410;SDS011;69635;50.964;6.948;2023-06-19T02:30:48;5.68;;;3.90;;
79410;SDS011;69635;50.964;6.948;2023-06-19T02:33:14;5.45;;;4.25;;
79410;SDS011;69635;50.964;6.948;2023-06-19T02:35:39;7.90;;;4.65;;
79410;SDS011;69635;50.964;6.948;2023-06-19T02:38:06;5.78;;;4.38;;
79410;SDS011;69635;50.964;6.948;2023-06-19T02:40:32;8.50;;;4.95;;
79410;SDS011;69635;50.964;6.948;2023-06-19T02:42:57;4.97;;;4.05;;
79410;SDS011;69635;50.964;6.948;2023-06-19T02:45:23;6.03;;;4.60;;
79410;SDS011;69635;50.964;6.948;2023-06-19T02:47:48;6.72;;;4.85;;
79410;SDS011;69635;50.964;6.948;2023-06-19T02:50:16;7.28;;;4.72;;
79410;SDS011;69635;50.964;6.948;2023-06-19T02:52:43;6.55;;;4.43;;
79410;SDS011;69635;50.964;6.948;2023-06-19T02:57:40;6.82;;;4.65;;
79410;SDS011;69635;50.964;6.948;2023-06-19T03:00:06;9.35;;;5.10;;
79410;SDS011;69635;50.964;6.948;2023-06-19T03:02:39;5.28;;;4.07;;
79410;SDS011;69635;50.964;6.948;2023-06-19T03:05:09;7.10;;;4.95;;
79410;SDS011;69635;50.964;6.948;2023-06-19T03:07:39;6.55;;;4.47;;
79410;SDS011;69635;50.964;6.948;2023-06-19T03:10:05;7.07;;;4.80;;
79410;SDS011;69635;50.964;6.948;2023-06-19T03:12:33;6.97;;;4.78;;
79410;SDS011;69635;50.964;6.948;2023-06-19T03:14:59;6.88;;;4.85;;
79410;SDS011;69635;50.964;6.948;2023-06-19T03:17:28;7.60;;;4.70;;
79410;SDS011;69635;50.964;6.948;2023-06-19T03:19:57;7.07;;;5.07;;
79410;SDS011;69635;50.964;6.948;2023-06-19T03:22:23;6.72;;;4.55;;
79410;SDS011;69635;50.964;6.948;2023-06-19T03:24:51;5.38;;;4.22;;
79410;SDS011;69635;50.964;6.948;2023-06-19T03:27:18;6.93;;;4.80;;
79410;SDS011;69635;50.964;6.948;2023-06-19T03:29:46;6.32;;;5.03;;
79410;SDS011;69635;50.964;6.948;2023-06-19T03:32:14;6.97;;;4.25;;
79410;SDS011;69635;50.964;6.948;2023-06-19T03:34:40;5.65;;;4.05;;
79410;SDS011;69635;50.964;6.948;2023-06-19T03:37:10;6.47;;;5.07;;
79410;SDS011;69635;50.964;6.948;2023-06-19T03:39:35;6.03;;;4.93;;
79410;SDS011;69635;50.964;6.948;2023-06-19T03:42:01;6.97;;;4.90;;
79410;SDS011;69635;50.964;6.948;2023-06-19T03:44:29;6.22;;;4.13;;
79410;SDS011;69635;50.964;6.948;2023-06-19T03:46:55;6.43;;;4.97;;
79410;SDS011;69635;50.964;6.948;2023-06-19T03:51:53;6.88;;;4.18;;
79410;SDS011;69635;50.964;6.948;2023-06-19T03:54:19;8.73;;;4.40;;
79410;SDS011;69635;50.964;6.948;2023-06-19T03:56:48;6.90;;;3.80;;
79410;SDS011;69635;50.964;6.948;2023-06-19T03:59:13;4.50;;;3.28;;
79410;SDS011;69635;50.964;6.948;2023-06-19T04:01:39;5.90;;;3.47;;
79410;SDS011;69635;50.964;6.948;2023-06-19T04:04:05;6.25;;;3.58;;
79410;SDS011;69635;50.964;6.948;2023-06-19T04:06:33;5.68;;;2.83;;
79410;SDS011;69635;50.964;6.948;2023-06-19T04:08:59;4.65;;;3.05;;
79410;SDS011;69635;50.964;6.948;2023-06-19T04:11:25;4.57;;;3.10;;
79410;SDS011;69635;50.964;6.948;2023-06-19T04:13:50;5.45;;;3.08;;
79410;SDS011;69635;50.964;6.948;2023-06-19T04:16:16;5.68;;;3.20;;
79410;SDS011;69635;50.964;6.948;2023-06-19T04:18:41;4.05;;;2.58;;
79410;SDS011;69635;50.964;6.948;2023-06-19T04:21:07;5.47;;;2.88;;
79410;SDS011;69635;50.964;6.948;2023-06-19T04:23:35;5.07;;;2.97;;
79410;SDS011;69635;50.964;6.948;2023-06-19T04:26:01;4.47;;;2.47;;
79410;SDS011;69635;50.964;6.948;2023-06-19T04:28:27;3.60;;;2.22;;
79410;SDS011;69635;50.964;6.948;2023-06-19T04:30:52;5.18;;;2.13;;
79410;SDS011;69635;50.964;6.948;2023-06-19T04:33:25;3.55;;;2.20;;
79410;SDS011;69635;50.964;6.948;2023-06-19T04:35:52;3.83;;;1.95;;
79410;SDS011;69635;50.964;6.948;2023-06-19T04:38:18;3.47;;;2.10;;
79410;SDS011;69635;50.964;6.948;2023-06-19T04:40:43;3.70;;;2.00;;
79410;SDS011;69635;50.964;6.948;2023-06-19T04:43:09;3.97;;;2.22;;
79410;SDS011;69635;50.964;6.948;2023-06-19T04:45:35;4.05;;;1.77;;
79410;SDS011;69635;50.964;6.948;2023-06-19T04:48:01;2.30;;;1.52;;
79410;SDS011;69635;50.964;6.948;2023-06-19T04:50:28;2.35;;;1.70;;
79410;SDS011;69635;50.964;6.948;2023-06-19T04:52:53;2.85;;;1.67;;
79410;SDS011;69635;50.964;6.948;2023-06-19T04:55:19;1.73;;;1.08;;
79410;SDS011;69635;50.964;6.948;2023-06-19T04:57:44;3.38;;;1.50;;
79410;SDS011;69635;50.964;6.948;2023-06-19T05:00:10;3.97;;;1.42;;
79410;SDS011;69635;50.964;6.948;2023-06-19T05:02:36;2.40;;;1.67;;
79410;SDS011;69635;50.964;6.948;2023-06-19T05:05:01;2.88;;;1.73;;
79410;SDS011;69635;50.964;6.948;2023-06-19T05:07:27;2.90;;;1.63;;
79410;SDS011;69635;50.964;6.948;2023-06-19T05:09:52;3.40;;;1.50;;
79410;SDS011;69635;50.964;6.948;2023-06-19T05:12:18;2.42;;;1.30;;
79410;SDS011;69635;50.964;6.948;2023-06-19T05:14:43;4.10;;;1.60;;
79410;SDS011;69635;50.964;6.948;2023-06-19T05:17:09;3.40;;;1.85;;
79410;SDS011;69635;50.964;6.948;2023-06-19T05:19:35;2.80;;;1.38;;
79410;SDS011;69635;50.964;6.948;2023-06-19T05:22:01;4.60;;;1.70;;
79410;SDS011;69635;50.964;6.948;2023-06-19T05:24:26;3.15;;;1.48;;
79410;SDS011;69635;50.964;6.948;2023-06-19T05:26:51;2.60;;;1.65;;
79410;SDS011;69635;50.964;6.948;2023-06-19T05:29:17;2.97;;;1.50;;
79410;SDS011;69635;50.964;6.948;2023-06-19T05:31:43;4.35;;;1.58;;
79410;SDS011;69635;50.964;6.948;2023-06-19T05:34:08;3.08;;;1.80;;
79410;SDS011;69635;50.964;6.948;2023-06-19T05:36:33;2.13;;;1.50;;
79410;SDS011;69635;50.964;6.948;2023-06-19T05:38:59;3.13;;;1.88;;
79410;SDS011;69635;50.964;6.948;2023-06-19T05:41:24;2.30;;;1.50;;
79410;SDS011;69635;50.964;6.948;2023-06-19T05:43:50;2.63;;;1.67;;
79410;SDS011;69635;50.964;6.948;2023-06-19T05:46:15;2.72;;;1.33;;
79410;SDS011;69635;50.964;6.948;2023-06-19T05:48:41;4.65;;;1.40;;
79410;SDS011;69635;50.964;6.948;2023-06-19T05:51:06;3.35;;;1.45;;
79410;SDS011;69635;50.964;6.948;2023-06-19T05:53:31;4.43;;;1.40;;
79410;SDS011;69635;50.964;6.948;2023-06-19T05:55:57;2.08;;;1.20;;
79410;SDS011;69635;50.964;6.948;2023-06-19T05:58:23;2.13;;;1.15;;
79410;SDS011;69635;50.964;6.948;2023-06-19T06:00:50;1.45;;;1.15;;
79410;SDS011;69635;50.964;6.948;2023-06-19T06:03:22;3.17;;;1.27;;
79410;SDS011;69635;50.964;6.948;2023-06-19T06:05:48;2.05;;;1.42;;
79410;SDS011;69635;50.964;6.948;2023-06-19T06:08:14;3.15;;;1.10;;
79410;SDS011;69635;50.964;6.948;2023-06-19T06:10:40;2.13;;;1.10;;
79410;SDS011;69635;50.964;6.948;2023-06-19T06:13:08;2.78;;;1.33;;
79410;SDS011;69635;50.964;6.948;2023-06-19T06:15:34;3.25;;;1.33;;
79410;SDS011;69635;50.964;6.948;2023-06-19T06:17:59;1.85;;;1.00;;
79410;SDS011;69635;50.964;6.948;2023-06-19T06:20:25;2.55;;;1.30;;
79410;SDS011;69635;50.964;6.948;2023-06-19T06:22:53;3.03;;;1.25;;
79410;SDS011;69635;50.964;6.948;2023-06-19T06:25:19;2.72;;;1.15;;
79410;SDS011;69635;50.964;6.948;2023-06-19T06:27:44;2.05;;;1.08;;
79410;SDS011;69635;50.964;6.948;2023-06-19T06:30:10;2.28;;;0.90;;
79410;SDS011;69635;50.964;6.948;2023-06-19T06:32:36;1.95;;;1.05;;
79410;SDS011;69635;50.964;6.948;2023-06-19T06:35:04;1.67;;;1.00;;
79410;SDS011;69635;50.964;6.948;2023-06-19T06:37:29;5.13;;;1.23;;
79410;SDS011;69635;50.964;6.948;2023-06-19T06:39:55;3.13;;;1.20;;
79410;SDS011;69635;50.964;6.948;2023-06-19T06:42:20;1.50;;;0.82;;
79410;SDS011;69635;50.964;6.948;2023-06-19T06:44:46;2.25;;;0.85;;
79410;SDS011;69635;50.964;6.948;2023-06-19T06:47:11;2.25;;;1.00;;
79410;SDS011;69635;50.964;6.948;2023-06-19T06:49:36;2.72;;;1.23;;
79410;SDS011;69635;50.964;6.948;2023-06-19T06:52:03;3.35;;;1.80;;
79410;SDS011;69635;50.964;6.948;2023-06-19T06:54:29;1.65;;;0.90;;
79410;SDS011;69635;50.964;6.948;2023-06-19T06:56:54;2.75;;;1.00;;
79410;SDS011;69635;50.964;6.948;2023-06-19T06:59:23;1.95;;;1.20;;
79410;SDS011;69635;50.964;6.948;2023-06-19T07:01:50;2.45;;;1.20;;
79410;SDS011;69635;50.964;6.948;2023-06-19T07:04:15;2.50;;;0.88;;
79410;SDS011;69635;50.964;6.948;2023-06-19T07:06:40;1.70;;;1.15;;
79410;SDS011;69635;50.964;6.948;2023-06-19T07:09:06;1.85;;;0.90;;
79410;SDS011;69635;50.964;6.948;2023-06-19T07:11:32;2.72;;;1.00;;
79410;SDS011;69635;50.964;6.948;2023-06-19T07:14:03;2.03;;;1.05;;
79410;SDS011;69635;50.964;6.948;2023-06-19T07:16:30;1.00;;;0.60;;
79410;SDS011;69635;50.964;6.948;2023-06-19T07:18:56;1.15;;;0.70;;
79410;SDS011;69635;50.964;6.948;2023-06-19T07:21:30;1.40;;;0.80;;
79410;SDS011;69635;50.964;6.948;2023-06-19T07:23:56;1.23;;;0.75;;
79410;SDS011;69635;50.964;6.948;2023-06-19T07:26:23;1.65;;;0.90;;
79410;SDS011;69635;50.964;6.948;2023-06-19T07:28:48;2.25;;;1.13;;
79410;SDS011;69635;50.964;6.948;2023-06-19T07:31:14;2.00;;;1.00;;
79410;SDS011;69635;50.964;6.948;2023-06-19T07:33:39;1.20;;;0.70;;
79410;SDS011;69635;50.964;6.948;2023-06-19T07:36:05;1.08;;;0.52;;
79410;SDS011;69635;50.964;6.948;2023-06-19T07:38:30;0.95;;;0.60;;
79410;SDS011;69635;50.964;6.948;2023-06-19T07:40:56;1.25;;;0.73;;
79410;SDS011;69635;50.964;6.948;2023-06-19T07:43:21;1.85;;;0.85;;
79410;SDS011;69635;50.964;6.948;2023-06-19T07:45:47;2.13;;;0.70;;
79410;SDS011;69635;50.964;6.948;2023-06-19T07:48:13;1.35;;;0.60;;
79410;SDS011;69635;50.964;6.948;2023-06-19T07:50:39;2.25;;;0.80;;
79410;SDS011;69635;50.964;6.948;2023-06-19T07:53:04;0.93;;;0.70;;
79410;SDS011;69635;50.964;6.948;2023-06-19T07:55:30;1.88;;;0.70;;
79410;SDS011;69635;50.964;6.948;2023-06-19T07:57:55;2.08;;;0.60;;
79410;SDS011;69635;50.964;6.948;2023-06-19T08:00:24;1.02;;;0.63;;
79410;SDS011;69635;50.964;6.948;2023-06-19T08:03:06;1.23;;;0.82;;
79410;SDS011;69635;50.964;6.948;2023-06-19T08:05:32;0.85;;;0.63;;
79410;SDS011;69635;50.964;6.948;2023-06-19T08:08:00;1.02;;;0.80;;
79410;SDS011;69635;50.964;6.948;2023-06-19T08:10:26;1.88;;;1.08;;
79410;SDS011;69635;50.964;6.948;2023-06-19T08:12:52;1.80;;;1.15;;
79410;SDS011;69635;50.964;6.948;2023-06-19T08:15:18;1.60;;;1.10;;
79410;SDS011;69635;50.964;6.948;2023-06-19T08:17:43;2.08;;;1.10;;
79410;SDS011;69635;50.964;6.948;2023-06-19T08:20:09;1.02;;;0.75;;
79410;SDS011;69635;50.964;6.948;2023-06-19T08:22:38;2.85;;;1.00;;
79410;SDS011;69635;50.964;6.948;2023-06-19T08:25:09;2.60;;;0.93;;
79410;SDS011;69635;50.964;6.948;2023-06-19T08:27:37;1.50;;;1.13;;
79410;SDS011;69635;50.964;6.948;2023-06-19T08:30:03;2.50;;;1.30;;
79410;SDS011;69635;50.964;6.948;2023-06-19T08:32:29;3.33;;;1.35;;
79410;SDS011;69635;50.964;6.948;2023-06-19T08:34:54;1.25;;;0.80;;
79410;SDS011;69635;50.964;6.948;2023-06-19T08:37:19;1.50;;;0.95;;
79410;SDS011;69635;50.964;6.948;2023-06-19T08:39:45;2.65;;;1.20;;
79410;SDS011;69635;50.964;6.948;2023-06-19T08:42:10;1.83;;;1.17;;
79410;SDS011;69635;50.964;6.948;2023-06-19T08:44:36;2.08;;;1.23;;
79410;SDS011;69635;50.964;6.948;2023-06-19T08:47:02;1.83;;;1.00;;
79410;SDS011;69635;50.964;6.948;2023-06-19T08:49:29;3.75;;;1.20;;
79410;SDS011;69635;50.964;6.948;2023-06-19T08:51:56;2.38;;;1.00;;
79410;SDS011;69635;50.964;6.948;2023-06-19T08:54:21;1.30;;;1.00;;
79410;SDS011;69635;50.964;6.948;2023-06-19T08:56:47;1.90;;;1.00;;
79410;SDS011;69635;50.964;6.948;2023-06-19T08:59:14;2.05;;;1.20;;
79410;SDS011;69635;50.964;6.948;2023-06-19T09:01:45;6.65;;;2.20;;
79410;SDS011;69635;50.964;6.948;2023-06-19T09:04:17;3.25;;;1.50;;
79410;SDS011;69635;50.964;6.948;2023-06-19T09:06:50;2.33;;;1.77;;
79410;SDS011;69635;50.964;6.948;2023-06-19T09:09:21;2.92;;;1.40;;
79410;SDS011;69635;50.964;6.948;2023-06-19T09:14:50;3.33;;;1.27;;
79410;SDS011;69635;50.964;6.948;2023-06-19T09:17:18;2.30;;;1.33;;
79410;SDS011;69635;50.964;6.948;2023-06-19T09:19:48;2.35;;;1.27;;
79410;SDS011;69635;50.964;6.948;2023-06-19T09:22:16;3.90;;;1.90;;
79410;SDS011;69635;50.964;6.948;2023-06-19T09:24:48;2.90;;;1.85;;
79410;SDS011;69635;50.964;6.948;2023-06-19T09:27:15;2.90;;;1.70;;
79410;SDS011;69635;50.964;6.948;2023-06-19T09:29:46;4.25;;;1.83;;
79410;SDS011;69635;50.964;6.948;2023-06-19T09:34:43;5.28;;;1.90;;
79410;SDS011;69635;50.964;6.948;2023-06-19T09:37:09;3.25;;;1.92;;
79410;SDS011;69635;50.964;6.948;2023-06-19T09:39:35;3.55;;;1.75;;
79410;SDS011;69635;50.964;6.948;2023-06-19T09:42:02;2.85;;;2.08;;
79410;SDS011;69635;50.964;6.948;2023-06-19T09:44:31;3.22;;;2.00;;
79410;SDS011;69635;50.964;6.948;2023-06-19T09:47:03;3.38;;;2.00;;
79410;SDS011;69635;50.964;6.948;2023-06-19T09:49:42;3.80;;;2.10;;
79410;SDS011;69635;50.964;6.948;2023-06-19T09:52:12;3.53;;;2.10;;
79410;SDS011;69635;50.964;6.948;2023-06-19T09:54:38;4.28;;;1.90;;
79410;SDS011;69635;50.964;6.948;2023-06-19T09:57:06;4.10;;;2.50;;
79410;SDS011;69635;50.964;6.948;2023-06-19T09:59:33;5.78;;;2.22;;
79410;SDS011;69635;50.964;6.948;2023-06-19T10:01:59;5.00;;;2.10;;
79410;SDS011;69635;50.964;6.948;2023-06-19T10:04:24;3.00;;;2.00;;
79410;SDS011;69635;50.964;6.948;2023-06-19T10:06:50;6.25;;;2.15;;
79410;SDS011;69635;50.964;6.948;2023-06-19T10:09:16;4.15;;;1.80;;
79410;SDS011;69635;50.964;6.948;2023-06-19T10:11:48;2.17;;;1.63;;
79410;SDS011;69635;50.964;6.948;2023-06-19T10:14:16;5.05;;;2.13;;
79410;SDS011;69635;50.964;6.948;2023-06-19T10:16:50;4.95;;;2.25;;
79410;SDS011;69635;50.964;6.948;2023-06-19T10:19:17;3.25;;;2.30;;
79410;SDS011;69635;50.964;6.948;2023-06-19T10:21:47;3.15;;;2.00;;
79410;SDS011;69635;50.964;6.948;2023-06-19T10:24:15;4.22;;;2.33;;
79410;SDS011;69635;50.964;6.948;2023-06-19T10:26:44;3.17;;;2.00;;
79410;SDS011;69635;50.964;6.948;2023-06-19T10:29:21;3.03;;;1.80;;
79410;SDS011;69635;50.964;6.948;2023-06-19T10:31:47;4.03;;;2.15;;
79410;SDS011;69635;50.964;6.948;2023-06-19T10:34:12;3.15;;;1.88;;
79410;SDS011;69635;50.964;6.948;2023-06-19T10:36:38;4.57;;;2.20;;
79410;SDS011;69635;50.964;6.948;2023-06-19T10:39:03;3.88;;;2.08;;
79410;SDS011;69635;50.964;6.948;2023-06-19T10:41:29;4.78;;;2.60;;
79410;SDS011;69635;50.964;6.948;2023-06-19T10:44:06;4.30;;;2.10;;
79410;SDS011;69635;50.964;6.948;2023-06-19T10:46:37;3.58;;;1.80;;
79410;SDS011;69635;50.964;6.948;2023-06-19T10:49:04;3.50;;;1.90;;
79410;SDS011;69635;50.964;6.948;2023-06-19T10:51:31;4.13;;;2.10;;
79410;SDS011;69635;50.964;6.948;2023-06-19T10:56:24;4.18;;;2.15;;
79410;SDS011;69635;50.964;6.948;2023-06-19T10:59:03;3.80;;;2.05;;
79410;SDS011;69635;50.964;6.948;2023-06-19T11:01:42;2.85;;;1.98;;
79410;SDS011;69635;50.964;6.948;2023-06-19T11:04:10;9.05;;;5.00;;
79410;SDS011;69635;50.964;6.948;2023-06-19T11:06:38;3.35;;;2.70;;
79410;SDS011;69635;50.964;6.948;2023-06-19T11:09:05;3.08;;;2.25;;
79410;SDS011;69635;50.964;6.948;2023-06-19T11:14:05;4.50;;;2.30;;
79410;SDS011;69635;50.964;6.948;2023-06-19T11:16:32;5.82;;;2.50;;
79410;SDS011;69635;50.964;6.948;2023-06-19T11:18:58;5.07;;;2.03;;
79410;SDS011;69635;50.964;6.948;2023-06-19T11:21:34;4.13;;;2.20;;
79410;SDS011;69635;50.964;6.948;2023-06-19T11:24:11;2.85;;;1.83;;
79410;SDS011;69635;50.964;6.948;2023-06-19T11:26:39;5.00;;;2.35;;
79410;SDS011;69635;50.964;6.948;2023-06-19T11:32:05;3.78;;;2.45;;
79410;SDS011;69635;50.964;6.948;2023-06-19T11:34:34;4.43;;;1.95;;
79410;SDS011;69635;50.964;6.948;2023-06-19T11:37:01;4.10;;;1.95;;
79410;SDS011;69635;50.964;6.948;2023-06-19T11:39:27;4.07;;;2.38;;
79410;SDS011;69635;50.964;6.948;2023-06-19T11:41:54;2.60;;;2.22;;
79410;SDS011;69635;50.964;6.948;2023-06-19T11:44:19;4.90;;;2.17;;
79410;SDS011;69635;50.964;6.948;2023-06-19T11:46:45;2.70;;;1.73;;
79410;SDS011;69635;50.964;6.948;2023-06-19T11:49:13;4.07;;;2.10;;
79410;SDS011;69635;50.964;6.948;2023-06-19T11:51:43;6.72;;;2.22;;
79410;SDS011;69635;50.964;6.948;2023-06-19T11:54:10;4.85;;;1.95;;
79410;SDS011;69635;50.964;6.948;2023-06-19T11:56:39;3.92;;;2.30;;
79410;SDS011;69635;50.964;6.948;2023-06-19T11:59:05;4.28;;;2.33;;
79410;SDS011;69635;50.964;6.948;2023-06-19T12:01:33;3.42;;;2.45;;
79410;SDS011;69635;50.964;6.948;2023-06-19T12:04:00;3.45;;;1.90;;
79410;SDS011;69635;50.964;6.948;2023-06-19T12:06:27;5.07;;;1.88;;
79410;SDS011;69635;50.964;6.948;2023-06-19T12:08:53;4.25;;;2.38;;
79410;SDS011;69635;50.964;6.948;2023-06-19T12:11:19;4.55;;;2.55;;
79410;SDS011;69635;50.964;6.948;2023-06-19T12:13:44;4.70;;;2.22;;
79410;SDS011;69635;50.964;6.948;2023-06-19T12:16:10;3.08;;;1.80;;
79410;SDS011;69635;50.964;6.948;2023-06-19T12:18:36;5.07;;;2.35;;
79410;SDS011;69635;50.964;6.948;2023-06-19T12:21:02;2.88;;;1.90;;
79410;SDS011;69635;50.964;6.948;2023-06-19T12:23:27;4.90;;;2.05;;
79410;SDS011;69635;50.964;6.948;2023-06-19T12:25:53;5.10;;;2.15;;
79410;SDS011;69635;50.964;6.948;2023-06-19T12:28:18;4.35;;;1.80;;
79410;SDS011;69635;50.964;6.948;2023-06-19T12:30:46;2.03;;;1.23;;
79410;SDS011;69635;50.964;6.948;2023-06-19T12:33:19;2.40;;;1.77;;
79410;SDS011;69635;50.964;6.948;2023-06-19T12:35:48;4.25;;;1.83;;
79410;SDS011;69635;50.964;6.948;2023-06-19T12:38:14;4.75;;;2.05;;
79410;SDS011;69635;50.964;6.948;2023-06-19T12:40:39;4.10;;;1.90;;
79410;SDS011;69635;50.964;6.948;2023-06-19T12:43:06;3.22;;;1.85;;
79410;SDS011;69635;50.964;6.948;2023-06-19T12:45:31;3.63;;;2.00;;
79410;SDS011;69635;50.964;6.948;2023-06-19T12:47:57;3.80;;;1.77;;
79410;SDS011;69635;50.964;6.948;2023-06-19T12:50:22;3.70;;;1.30;;
79410;SDS011;69635;50.964;6.948;2023-06-19T12:52:48;4.53;;;1.88;;
79410;SDS011;69635;50.964;6.948;2023-06-19T12:55:16;3.03;;;1.60;;
79410;SDS011;69635;50.964;6.948;2023-06-19T12:57:41;3.67;;;1.45;;
79410;SDS011;69635;50.964;6.948;2023-06-19T13:00:10;3.75;;;2.05;;
79410;SDS011;69635;50.964;6.948;2023-06-19T13:02:40;4.03;;;1.90;;
79410;SDS011;69635;50.964;6.948;2023-06-19T13:05:08;3.35;;;1.95;;
79410;SDS011;69635;50.964;6.948;2023-06-19T13:07:34;3.10;;;1.83;;
79410;SDS011;69635;50.964;6.948;2023-06-19T13:09:59;4.07;;;2.03;;
79410;SDS011;69635;50.964;6.948;2023-06-19T13:12:24;4.93;;;2.28;;
79410;SDS011;69635;50.964;6.948;2023-06-19T13:14:50;4.63;;;1.90;;
79410;SDS011;69635;50.964;6.948;2023-06-19T13:17:16;5.00;;;1.67;;
79410;SDS011;69635;50.964;6.948;2023-06-19T13:19:41;4.32;;;2.50;;
79410;SDS011;69635;50.964;6.948;2023-06-19T13:22:07;3.67;;;2.00;;
79410;SDS011;69635;50.964;6.948;2023-06-19T13:24:32;4.47;;;1.83;;
79410;SDS011;69635;50.964;6.948;2023-06-19T13:26:58;3.47;;;2.25;;
79410;SDS011;69635;50.964;6.948;2023-06-19T13:29:24;4.47;;;2.20;;
79410;SDS011;69635;50.964;6.948;2023-06-19T13:31:49;5.97;;;2.15;;
79410;SDS011;69635;50.964;6.948;2023-06-19T13:34:15;3.33;;;1.80;;
79410;SDS011;69635;50.964;6.948;2023-06-19T13:36:41;4.35;;;2.60;;
79410;SDS011;69635;50.964;6.948;2023-06-19T13:39:06;3.00;;;2.10;;
79410;SDS011;69635;50.964;6.948;2023-06-19T13:41:32;4.00;;;2.35;;
79410;SDS011;69635;50.964;6.948;2023-06-19T13:44:01;4.47;;;2.38;;
79410;SDS011;69635;50.964;6.948;2023-06-19T13:46:26;4.43;;;2.33;;
79410;SDS011;69635;50.964;6.948;2023-06-19T13:48:52;4.38;;;2.13;;
79410;SDS011;69635;50.964;6.948;2023-06-19T13:51:18;4.90;;;2.15;;
79410;SDS011;69635;50.964;6.948;2023-06-19T13:53:45;3.67;;;2.35;;
79410;SDS011;69635;50.964;6.948;2023-06-19T13:56:11;4.07;;;1.90;;
79410;SDS011;69635;50.964;6.948;2023-06-19T13:58:37;3.85;;;2.10;;
79410;SDS011;69635;50.964;6.948;2023-06-19T14:01:03;3.35;;;1.85;;
79410;SDS011;69635;50.964;6.948;2023-06-19T14:03:29;3.28;;;1.77;;
79410;SDS011;69635;50.964;6.948;2023-06-19T14:05:54;5.25;;;1.90;;
79410;SDS011;69635;50.964;6.948;2023-06-19T14:08:20;3.97;;;2.00;;
79410;SDS011;69635;50.964;6.948;2023-06-19T14:10:45;3.63;;;1.95;;
79410;SDS011;69635;50.964;6.948;2023-06-19T14:13:11;2.83;;;1.83;;
79410;SDS011;69635;50.964;6.948;2023-06-19T14:15:36;4.60;;;2.03;;
79410;SDS011;69635;50.964;6.948;2023-06-19T14:18:02;3.17;;;1.92;;
79410;SDS011;69635;50.964;6.948;2023-06-19T14:20:27;4.25;;;2.15;;
79410;SDS011;69635;50.964;6.948;2023-06-19T14:22:53;2.55;;;1.92;;
79410;SDS011;69635;50.964;6.948;2023-06-19T14:25:18;3.65;;;2.13;;
79410;SDS011;69635;50.964;6.948;2023-06-19T14:27:44;3.05;;;2.08;;
79410;SDS011;69635;50.964;6.948;2023-06-19T14:30:10;5.20;;;2.30;;
79410;SDS011;69635;50.964;6.948;2023-06-19T14:32:36;4.43;;;1.80;;
79410;SDS011;69635;50.964;6.948;2023-06-19T14:37:30;4.53;;;1.92;;
79410;SDS011;69635;50.964;6.948;2023-06-19T14:39:56;2.90;;;1.60;;
79410;SDS011;69635;50.964;6.948;2023-06-19T14:42:22;3.03;;;1.88;;
79410;SDS011;69635;50.964;6.948;2023-06-19T14:44:48;2.80;;;1.60;;
79410;SDS011;69635;50.964;6.948;2023-06-19T14:47:13;3.75;;;1.90;;
79410;SDS011;69635;50.964;6.948;2023-06-19T14:49:39;4.40;;;2.30;;
79410;SDS011;69635;50.964;6.948;2023-06-19T14:52:05;3.17;;;1.90;;
79410;SDS011;69635;50.964;6.948;2023-06-19T14:54:31;2.90;;;1.90;;
79410;SDS011;69635;50.964;6.948;2023-06-19T14:56:57;4.20;;;2.10;;
79410;SDS011;69635;50.964;6.948;2023-06-19T14:59:22;2.95;;;1.60;;
79410;SDS011;69635;50.964;6.948;2023-06-19T15:01:48;3.17;;;1.63;;
79410;SDS011;69635;50.964;6.948;2023-06-19T15:04:13;3.17;;;1.63;;
79410;SDS011;69635;50.964;6.948;2023-06-19T15:06:38;2.70;;;1.83;;
79410;SDS011;69635;50.964;6.948;2023-06-19T15:09:04;4.05;;;2.25;;